Time;durP1;ratioP1;P1;durP2;ratioP2;P2;SDS_P1;SDS_P2;PMS_P1;PMS_P2;Temp;Humidity;BMP_temperature;BMP_pressure;BME280_temperature;BME280_humidity;BME280_pressure;Samples;Min_cycle;Max_cycle;Signal;HPM_P1;HPM_P2
2022/05/28 00:00:39;;;;;;;;;;;20.60;58.50;;;;;;5004177;28;19917;-66
2022/05/28 00:03:05;;;;;;;;;;;20.60;58.50;;;;;;4994057;28;19918;-68
2022/05/28 00:05:30;;;;;;;;;;;20.60;58.40;;;;;;5004605;28;19918;-68
2022/05/28 00:07:56;;;;;;;;;;;20.60;58.50;;;;;;5004842;28;20644;-68
2022/05/28 00:10:21;;;;;;;;;;;20.60;58.40;;;;;;5004246;28;19957;-68
2022/05/28 00:12:47;;;;;;;;;;;20.60;58.40;;;;;;5005244;28;19918;-68
2022/05/28 00:15:12;;;;;;;;;;;20.60;58.50;;;;;;5004970;28;20096;-68
2022/05/28 00:17:38;;;;;;;;;;;20.60;58.40;;;;;;5005070;28;19918;-68
2022/05/28 00:20:04;;;;;;;;;;;20.60;58.40;;;;;;5004911;28;19928;-68
2022/05/28 00:22:29;;;;;;;;;;;20.60;58.40;;;;;;5006309;28;20416;-68
2022/05/28 00:24:55;;;;;;;;;;;20.60;58.40;;;;;;5005296;28;19913;-68
2022/05/28 00:27:20;;;;;;;;;;;20.60;58.40;;;;;;5005296;28;19929;-69
2022/05/28 00:29:46;;;;;;;;;;;20.60;58.40;;;;;;5004244;28;19925;-68
2022/05/28 00:32:11;;;;;;;;;;;20.60;58.40;;;;;;5005842;28;19917;-68
2022/05/28 00:34:37;;;;;;;;;;;20.60;58.40;;;;;;5004970;28;20630;-67
2022/05/28 00:37:03;;;;;;;;;;;20.60;58.40;;;;;;5005502;28;19964;-67
2022/05/28 00:39:28;;;;;;;;;;;20.60;58.40;;;;;;5004479;28;19917;-68
2022/05/28 00:41:55;;;;;;;;;;;20.60;58.40;;;;;;5005539;28;19975;-68
2022/05/28 00:44:20;;;;;;;;;;;20.50;58.30;;;;;;5005038;28;19920;-67
2022/05/28 00:46:46;;;;;;;;;;;20.50;58.30;;;;;;5004912;28;19921;-67
2022/05/28 00:49:14;;;;;;;;;;;20.50;58.30;;;;;;5003458;28;19922;-69
2022/05/28 00:51:40;;;;;;;;;;;20.50;58.30;;;;;;5010778;28;19913;-68
2022/05/28 00:54:06;;;;;;;;;;;20.50;58.30;;;;;;5004601;28;20432;-69
2022/05/28 00:56:31;;;;;;;;;;;20.50;58.30;;;;;;5003791;28;19918;-68
2022/05/28 00:58:58;;;;;;;;;;;20.50;58.30;;;;;;5003341;28;19918;-69
2022/05/28 01:01:25;;;;;;;;;;;20.50;58.30;;;;;;5003930;28;19917;-69
2022/05/28 01:03:54;;;;;;;;;;;20.50;58.30;;;;;;5001776;28;19920;-68
2022/05/28 01:06:42;;;;;;;;;;;20.50;58.30;;;;;;5000269;28;20019;-69
2022/05/28 01:09:08;;;;;;;;;;;20.50;58.30;;;;;;5000869;28;20465;-69
2022/05/28 01:11:38;;;;;;;;;;;20.60;58.30;;;;;;5014031;28;19985;-70
2022/05/28 01:14:23;;;;;;;;;;;20.60;58.30;;;;;;5003143;28;19914;-69
2022/05/28 01:16:50;;;;;;;;;;;20.50;58.30;;;;;;5002916;28;19917;-68
2022/05/28 01:19:32;;;;;;;;;;;20.50;58.30;;;;;;5002774;28;20325;-69
2022/05/28 01:22:15;;;;;;;;;;;20.50;58.30;;;;;;5011178;28;19917;-69
2022/05/28 01:24:59;;;;;;;;;;;20.50;58.30;;;;;;5002526;28;19917;-69
2022/05/28 01:27:29;;;;;;;;;;;20.50;58.20;;;;;;5003322;28;19926;-69
2022/05/28 01:29:54;;;;;;;;;;;20.50;58.20;;;;;;5002877;28;20308;-67
2022/05/28 01:32:20;;;;;;;;;;;20.50;58.20;;;;;;5001846;28;19918;-66
2022/05/28 01:34:45;;;;;;;;;;;20.50;58.30;;;;;;5003626;28;19936;-69
2022/05/28 01:37:11;;;;;;;;;;;20.50;58.20;;;;;;5011827;28;19914;-69
2022/05/28 01:39:37;;;;;;;;;;;20.50;58.20;;;;;;5001146;28;19996;-69
2022/05/28 01:42:02;;;;;;;;;;;20.50;58.20;;;;;;5002684;28;19913;-66
2022/05/28 01:44:28;;;;;;;;;;;20.50;58.20;;;;;;5003784;28;19913;-67
2022/05/28 01:46:53;;;;;;;;;;;20.50;58.20;;;;;;5015410;28;20037;-68
2022/05/28 01:49:19;;;;;;;;;;;20.50;58.20;;;;;;5001424;28;19988;-70
2022/05/28 01:51:49;;;;;;;;;;;20.50;58.20;;;;;;5001969;28;19913;-68
2022/05/28 01:54:15;;;;;;;;;;;20.50;58.20;;;;;;5018472;28;19924;-67
2022/05/28 01:56:44;;;;;;;;;;;20.50;58.20;;;;;;5018229;28;19917;-70
2022/05/28 01:59:10;;;;;;;;;;;20.50;58.20;;;;;;5001211;28;19988;-68
2022/05/28 02:01:36;;;;;;;;;;;20.50;58.20;;;;;;5001736;28;20420;-70
2022/05/28 02:04:04;;;;;;;;;;;20.40;58.20;;;;;;5003288;28;19920;-70
2022/05/28 02:06:30;;;;;;;;;;;20.40;58.20;;;;;;5003063;28;19952;-69
2022/05/28 02:08:55;;;;;;;;;;;20.50;58.30;;;;;;5000302;28;20168;-71
2022/05/28 02:11:22;;;;;;;;;;;20.40;58.20;;;;;;5002597;28;20451;-68
2022/05/28 02:13:54;;;;;;;;;;;20.50;58.20;;;;;;5002547;28;19917;-67
2022/05/28 02:16:23;;;;;;;;;;;20.40;58.20;;;;;;5002734;28;19918;-69
2022/05/28 02:18:56;;;;;;;;;;;20.40;58.20;;;;;;5002244;28;19957;-68
2022/05/28 02:21:31;;;;;;;;;;;20.50;58.30;;;;;;5002972;28;20384;-68
2022/05/28 02:23:59;;;;;;;;;;;20.40;58.20;;;;;;5002712;28;19920;-68
2022/05/28 02:26:27;;;;;;;;;;;20.40;58.20;;;;;;5017544;28;19931;-70
2022/05/28 02:28:52;;;;;;;;;;;20.50;58.30;;;;;;5002745;28;19925;-70
2022/05/28 02:31:19;;;;;;;;;;;20.40;58.30;;;;;;5000853;28;20340;-70
2022/05/28 02:33:44;;;;;;;;;;;20.40;58.20;;;;;;5001277;28;19913;-70
2022/05/28 02:36:11;;;;;;;;;;;20.40;58.20;;;;;;5018239;28;19929;-69
2022/05/28 02:38:36;;;;;;;;;;;20.40;58.20;;;;;;5007404;28;19921;-68
2022/05/28 02:41:02;;;;;;;;;;;20.40;58.30;;;;;;5001928;28;19917;-69
2022/05/28 02:43:29;;;;;;;;;;;20.40;58.20;;;;;;5002442;28;19918;-69
2022/05/28 02:45:54;;;;;;;;;;;20.40;58.30;;;;;;5002267;28;19922;-69
2022/05/28 02:48:20;;;;;;;;;;;20.40;58.30;;;;;;5001395;28;20280;-69
2022/05/28 02:50:45;;;;;;;;;;;20.40;58.20;;;;;;5001742;28;19920;-69
2022/05/28 02:53:13;;;;;;;;;;;20.40;58.30;;;;;;5002179;28;19945;-69
2022/05/28 02:55:39;;;;;;;;;;;20.40;58.30;;;;;;5002472;28;20361;-70
2022/05/28 02:58:04;;;;;;;;;;;20.30;58.20;;;;;;5002227;28;20000;-69
2022/05/28 03:00:29;;;;;;;;;;;20.40;58.20;;;;;;5001314;28;19952;-69
2022/05/28 03:02:55;;;;;;;;;;;20.40;58.20;;;;;;5002458;28;20647;-69
2022/05/28 03:05:21;;;;;;;;;;;20.40;58.20;;;;;;5002385;28;19914;-69
2022/05/28 03:07:46;;;;;;;;;;;20.40;58.20;;;;;;5002989;28;20696;-70
2022/05/28 03:10:11;;;;;;;;;;;20.40;58.30;;;;;;5001828;28;19913;-69
2022/05/28 03:12:37;;;;;;;;;;;20.40;58.20;;;;;;5002285;28;19917;-70
2022/05/28 03:15:03;;;;;;;;;;;20.30;58.20;;;;;;5002829;28;20435;-68
2022/05/28 03:17:29;;;;;;;;;;;20.30;58.20;;;;;;5002586;28;19917;-68
2022/05/28 03:19:54;;;;;;;;;;;20.30;58.20;;;;;;5002235;28;19920;-67
2022/05/28 03:22:19;;;;;;;;;;;20.30;58.20;;;;;;5001638;28;19944;-69
2022/05/28 03:24:45;;;;;;;;;;;20.30;58.20;;;;;;5001933;28;19914;-69
2022/05/28 03:27:11;;;;;;;;;;;20.30;58.20;;;;;;5005328;28;19928;-69
2022/05/28 03:29:36;;;;;;;;;;;20.30;58.20;;;;;;5004038;28;20628;-70
2022/05/28 03:32:02;;;;;;;;;;;20.30;58.20;;;;;;5005802;28;19927;-69
2022/05/28 03:34:27;;;;;;;;;;;20.30;58.20;;;;;;5005967;28;20047;-69
2022/05/28 03:36:53;;;;;;;;;;;20.30;58.10;;;;;;5006487;28;19979;-69
2022/05/28 03:39:18;;;;;;;;;;;20.30;58.10;;;;;;5004696;28;19952;-69
2022/05/28 03:41:44;;;;;;;;;;;20.30;58.10;;;;;;5004830;28;20277;-69
2022/05/28 03:44:11;;;;;;;;;;;20.30;58.00;;;;;;5014793;28;19918;-70
2022/05/28 03:46:36;;;;;;;;;;;20.30;58.10;;;;;;5005701;28;20309;-70
2022/05/28 03:49:03;;;;;;;;;;;20.30;58.10;;;;;;5005050;28;19963;-70
2022/05/28 03:51:30;;;;;;;;;;;20.30;58.00;;;;;;5020568;28;19914;-69
2022/05/28 03:53:55;;;;;;;;;;;20.30;58.00;;;;;;5005112;28;20448;-68
2022/05/28 03:56:20;;;;;;;;;;;20.30;58.00;;;;;;5005687;28;20013;-69
2022/05/28 03:58:47;;;;;;;;;;;20.30;58.00;;;;;;5002864;28;19957;-68
2022/05/28 04:01:14;;;;;;;;;;;20.30;58.00;;;;;;5020181;28;19923;-68
2022/05/28 04:03:39;;;;;;;;;;;20.30;58.00;;;;;;5005567;28;19918;-69
2022/05/28 04:06:04;;;;;;;;;;;20.30;58.00;;;;;;5004555;28;20479;-70
2022/05/28 04:08:30;;;;;;;;;;;20.30;58.00;;;;;;5002731;28;19932;-69
2022/05/28 04:10:55;;;;;;;;;;;20.30;58.00;;;;;;5003371;28;19926;-69
2022/05/28 04:13:21;;;;;;;;;;;20.30;58.00;;;;;;5019944;28;19917;-70
2022/05/28 04:15:49;;;;;;;;;;;20.30;58.00;;;;;;5005162;28;19964;-69
2022/05/28 04:18:14;;;;;;;;;;;20.30;58.00;;;;;;5003219;28;19925;-70
2022/05/28 04:20:40;;;;;;;;;;;20.30;58.60;;;;;;5004114;28;19918;-69
2022/05/28 04:23:05;;;;;;;;;;;20.30;58.00;;;;;;5005173;28;19917;-69
2022/05/28 04:25:31;;;;;;;;;;;20.30;58.00;;;;;;5004225;28;20032;-70
2022/05/28 04:27:56;;;;;;;;;;;20.30;58.00;;;;;;5004070;28;19924;-70
2022/05/28 04:30:22;;;;;;;;;;;20.30;58.00;;;;;;5003489;28;19918;-70
2022/05/28 04:32:47;;;;;;;;;;;20.30;58.00;;;;;;5019735;28;19992;-70
2022/05/28 04:35:12;;;;;;;;;;;20.30;58.00;;;;;;5020291;22;19933;-64
2022/05/28 04:37:38;;;;;;;;;;;20.30;58.00;;;;;;5023577;28;20380;-66
2022/05/28 04:40:04;;;;;;;;;;;20.30;58.00;;;;;;5023860;28;19963;-65
2022/05/28 04:42:29;;;;;;;;;;;20.30;58.00;;;;;;5023843;28;19917;-68
2022/05/28 04:44:56;;;;;;;;;;;20.20;58.00;;;;;;5023727;28;20005;-68
2022/05/28 04:47:22;;;;;;;;;;;20.20;58.00;;;;;;5023918;28;19928;-67
2022/05/28 04:49:47;;;;;;;;;;;20.30;58.00;;;;;;5018340;28;20059;-68
2022/05/28 04:52:13;;;;;;;;;;;20.20;58.00;;;;;;5004257;28;20617;-67
2022/05/28 04:54:38;;;;;;;;;;;20.20;57.90;;;;;;5007213;28;20003;-68
2022/05/28 04:57:04;;;;;;;;;;;20.20;57.90;;;;;;5023034;28;19917;-68
2022/05/28 04:59:29;;;;;;;;;;;20.20;58.00;;;;;;5020798;28;19914;-68
2022/05/28 05:01:55;;;;;;;;;;;20.20;58.00;;;;;;5004739;28;20030;-68
2022/05/28 05:04:20;;;;;;;;;;;20.20;57.90;;;;;;5002630;28;19925;-67
2022/05/28 05:06:45;;;;;;;;;;;20.20;57.90;;;;;;5023080;28;20346;-67
2022/05/28 05:09:11;;;;;;;;;;;20.20;57.90;;;;;;5022072;28;19949;-67
2022/05/28 05:11:36;;;;;;;;;;;20.20;57.90;;;;;;5006093;28;19918;-67
2022/05/28 05:14:02;;;;;;;;;;;20.20;57.90;;;;;;5004315;28;19921;-68
2022/05/28 05:16:27;;;;;;;;;;;20.20;57.90;;;;;;5019159;28;19917;-67
2022/05/28 05:18:53;;;;;;;;;;;20.20;58.00;;;;;;5022929;28;19975;-67
2022/05/28 05:21:18;;;;;;;;;;;20.20;58.00;;;;;;5010097;28;19922;-67
2022/05/28 05:23:44;;;;;;;;;;;20.20;58.00;;;;;;5003566;28;19925;-67
2022/05/28 05:26:12;;;;;;;;;;;20.20;57.90;;;;;;5014844;28;20554;-67
2022/05/28 05:28:38;;;;;;;;;;;20.20;57.90;;;;;;5021751;28;19971;-67
2022/05/28 05:31:03;;;;;;;;;;;20.20;58.00;;;;;;5012558;28;20503;-67
2022/05/28 05:33:29;;;;;;;;;;;20.20;57.90;;;;;;5004322;28;19914;-67
2022/05/28 05:35:54;;;;;;;;;;;20.10;57.90;;;;;;5011849;28;19929;-67
2022/05/28 05:38:20;;;;;;;;;;;20.10;57.90;;;;;;5022994;28;19951;-67
2022/05/28 05:40:45;;;;;;;;;;;20.20;58.00;;;;;;5014180;28;19920;-67
2022/05/28 05:43:11;;;;;;;;;;;20.10;57.90;;;;;;5003024;28;19914;-67
2022/05/28 05:45:38;;;;;;;;;;;20.10;57.90;;;;;;5007617;28;20387;-67
2022/05/28 05:48:04;;;;;;;;;;;20.10;57.90;;;;;;5022364;28;20347;-67
2022/05/28 05:50:29;;;;;;;;;;;20.10;57.90;;;;;;5019448;28;19913;-67
2022/05/28 05:52:54;;;;;;;;;;;20.10;57.90;;;;;;5003177;28;19921;-67
2022/05/28 05:55:20;;;;;;;;;;;20.10;57.80;;;;;;5003675;28;19914;-67
2022/05/28 05:57:45;;;;;;;;;;;20.10;57.80;;;;;;5022867;28;20655;-67
2022/05/28 06:00:11;;;;;;;;;;;20.10;57.80;;;;;;5021833;28;19960;-67
2022/05/28 06:02:36;;;;;;;;;;;20.10;57.80;;;;;;5004606;28;19983;-67
2022/05/28 06:05:02;;;;;;;;;;;20.10;57.80;;;;;;5001834;28;20502;-67
2022/05/28 06:07:27;;;;;;;;;;;20.10;57.80;;;;;;5017756;28;20544;-67
2022/05/28 06:09:55;;;;;;;;;;;20.10;57.70;;;;;;5020613;28;21366;-67
2022/05/28 06:12:20;;;;;;;;;;;20.10;57.80;;;;;;5007515;28;20502;-67
2022/05/28 06:14:45;;;;;;;;;;;20.10;57.80;;;;;;5001263;28;19918;-67
2022/05/28 06:17:11;;;;;;;;;;;20.10;57.80;;;;;;5015352;28;19948;-68
2022/05/28 06:19:36;;;;;;;;;;;20.10;57.80;;;;;;5021132;28;19917;-67
2022/05/28 06:22:02;;;;;;;;;;;20.10;57.70;;;;;;5010840;28;20466;-67
2022/05/28 06:24:27;;;;;;;;;;;20.10;57.70;;;;;;5002233;28;19949;-66
2022/05/28 06:26:53;;;;;;;;;;;20.10;57.70;;;;;;5010673;28;19924;-66
2022/05/28 06:29:18;;;;;;;;;;;20.10;57.70;;;;;;5020971;28;19917;-68
2022/05/28 06:31:44;;;;;;;;;;;20.10;57.70;;;;;;5014168;28;20412;-67
2022/05/28 06:34:09;;;;;;;;;;;20.10;57.70;;;;;;5002529;28;19913;-67
2022/05/28 06:36:35;;;;;;;;;;;20.10;57.70;;;;;;5007913;28;19983;-67
2022/05/28 06:39:00;;;;;;;;;;;20.00;57.60;;;;;;5020786;28;19923;-67
2022/05/28 06:41:26;;;;;;;;;;;20.10;57.70;;;;;;5018411;28;20275;-67
2022/05/28 06:43:51;;;;;;;;;;;20.00;57.60;;;;;;5001897;28;19921;-68
2022/05/28 06:46:16;;;;;;;;;;;20.10;57.70;;;;;;5002140;28;19925;-67
2022/05/28 06:48:42;;;;;;;;;;;20.10;57.60;;;;;;5020786;28;19917;-66
2022/05/28 06:51:07;;;;;;;;;;;20.10;57.70;;;;;;5020484;28;19971;-68
2022/05/28 06:53:33;;;;;;;;;;;20.10;57.60;;;;;;5002512;28;19941;-68
2022/05/28 06:55:58;;;;;;;;;;;20.10;57.60;;;;;;4995186;28;19929;-66
2022/05/28 06:58:24;;;;;;;;;;;20.10;57.60;;;;;;5001744;28;19921;-66
2022/05/28 07:00:49;;;;;;;;;;;20.10;57.60;;;;;;5000686;28;19918;-67
2022/05/28 07:03:16;;;;;;;;;;;20.10;57.50;;;;;;5017194;28;19917;-66
2022/05/28 07:05:41;;;;;;;;;;;20.20;57.40;;;;;;5019614;28;19920;-65
2022/05/28 07:08:07;;;;;;;;;;;20.20;57.50;;;;;;5006284;28;20542;-67
2022/05/28 07:10:32;;;;;;;;;;;20.10;57.60;;;;;;5000181;28;20581;-67
2022/05/28 07:12:58;;;;;;;;;;;20.10;57.70;;;;;;5012015;28;19913;-65
2022/05/28 07:15:23;;;;;;;;;;;20.10;57.90;;;;;;5021662;28;19917;-66
2022/05/28 07:17:49;;;;;;;;;;;20.10;57.90;;;;;;5011659;28;20538;-66
2022/05/28 07:20:14;;;;;;;;;;;20.10;57.80;;;;;;5001753;28;19922;-64
2022/05/28 07:22:40;;;;;;;;;;;20.10;57.70;;;;;;5009558;28;20371;-64
2022/05/28 07:25:06;;;;;;;;;;;20.10;57.90;;;;;;5021849;28;19940;-64
2022/05/28 07:27:31;;;;;;;;;;;20.10;57.90;;;;;;5014988;28;19925;-64
2022/05/28 07:29:56;;;;;;;;;;;20.00;57.90;;;;;;5001484;28;19949;-64
2022/05/28 07:32:29;;;;;;;;;;;20.10;58.00;;;;;;5006131;28;20292;-65
2022/05/28 07:34:55;;;;;;;;;;;20.10;58.00;;;;;;5021543;28;19917;-65
2022/05/28 07:37:20;;;;;;;;;;;20.10;58.00;;;;;;5018076;28;19935;-64
2022/05/28 07:39:46;;;;;;;;;;;20.00;57.90;;;;;;5001092;28;19917;-64
2022/05/28 07:42:11;;;;;;;;;;;20.10;57.90;;;;;;5000996;28;19956;-64
2022/05/28 07:44:37;;;;;;;;;;;20.00;57.90;;;;;;5022248;28;20569;-64
2022/05/28 07:47:05;;;;;;;;;;;20.00;57.90;;;;;;5020280;28;19921;-63
2022/05/28 07:49:31;;;;;;;;;;;20.00;58.00;;;;;;4999640;28;20018;-64
2022/05/28 07:51:56;;;;;;;;;;;20.00;58.00;;;;;;5001734;28;19945;-65
2022/05/28 07:54:22;;;;;;;;;;;20.00;58.00;;;;;;5019765;28;19963;-65
2022/05/28 07:56:47;;;;;;;;;;;20.00;58.00;;;;;;5021977;28;19925;-63
2022/05/28 07:59:12;;;;;;;;;;;20.00;58.00;;;;;;5003280;28;19918;-65
2022/05/28 08:01:40;;;;;;;;;;;20.00;58.00;;;;;;5001982;28;20388;-64
2022/05/28 08:04:05;;;;;;;;;;;20.00;57.90;;;;;;5013783;28;19940;-64
2022/05/28 08:06:31;;;;;;;;;;;20.00;57.90;;;;;;5021227;28;20451;-64
2022/05/28 08:08:56;;;;;;;;;;;20.00;57.90;;;;;;5008573;28;19917;-65
2022/05/28 08:11:22;;;;;;;;;;;20.00;57.90;;;;;;5001306;28;20488;-65
2022/05/28 08:13:48;;;;;;;;;;;20.00;57.80;;;;;;5014439;28;19921;-66
2022/05/28 08:16:14;;;;;;;;;;;20.00;57.80;;;;;;5023931;28;19914;-64
2022/05/28 08:18:39;;;;;;;;;;;20.00;57.80;;;;;;4998757;28;20478;-67
2022/05/28 08:23:49;;;;;;;;;;;20.00;57.90;;;;;;5007174;28;20048;-64
2022/05/28 08:26:15;;;;;;;;;;;20.00;57.90;;;;;;5011462;28;19937;-64
2022/05/28 08:28:40;;;;;;;;;;;20.00;57.90;;;;;;5010245;28;19922;-65
2022/05/28 08:31:06;;;;;;;;;;;20.00;57.90;;;;;;5010173;28;19972;-66
2022/05/28 08:33:32;;;;;;;;;;;20.00;57.90;;;;;;5011042;28;19925;-67
2022/05/28 08:35:57;;;;;;;;;;;20.00;57.90;;;;;;5025022;28;19929;-65
2022/05/28 08:38:23;;;;;;;;;;;20.00;58.10;;;;;;5022630;28;20817;-65
2022/05/28 08:40:55;;;;;;;;;;;20.00;58.10;;;;;;5003051;28;20063;-65
2022/05/28 08:43:20;;;;;;;;;;;20.10;58.20;;;;;;5006840;28;19917;-65
2022/05/28 08:45:47;;;;;;;;;;;20.00;58.20;;;;;;5023963;28;19920;-65
2022/05/28 08:48:15;;;;;;;;;;;20.10;58.30;;;;;;5021569;28;19921;-65
2022/05/28 08:50:45;;;;;;;;;;;20.00;58.40;;;;;;5002679;28;20017;-65
2022/05/28 08:53:12;;;;;;;;;;;20.10;58.60;;;;;;5002729;28;20447;-65
2022/05/28 08:55:40;;;;;;;;;;;20.00;58.40;;;;;;5021820;28;19914;-65
2022/05/28 08:58:06;;;;;;;;;;;20.10;58.50;;;;;;5022120;28;19924;-65
2022/05/28 09:00:50;;;;;;;;;;;20.10;58.40;;;;;;5001279;28;19953;-66
2022/05/28 09:03:17;;;;;;;;;;;20.10;58.30;;;;;;5001654;28;20004;-66
2022/05/28 09:05:50;;;;;;;;;;;20.10;58.10;;;;;;5020870;28;19917;-66
2022/05/28 09:08:29;;;;;;;;;;;20.10;58.10;;;;;;5021400;28;19921;-66
2022/05/28 09:10:54;;;;;;;;;;;20.00;57.90;;;;;;4983294;28;19918;-65
2022/05/28 09:13:28;;;;;;;;;;;20.00;57.70;;;;;;4983646;28;19917;-65
2022/05/28 09:15:54;;;;;;;;;;;20.00;57.70;;;;;;5020387;28;19917;-66
2022/05/28 09:18:19;;;;;;;;;;;20.00;57.60;;;;;;5020969;28;20419;-62
2022/05/28 09:20:45;;;;;;;;;;;20.00;57.50;;;;;;5003917;28;19922;-65
2022/05/28 09:23:10;;;;;;;;;;;20.00;57.40;;;;;;5002554;28;19913;-66
2022/05/28 09:25:40;;;;;;;;;;;20.00;57.30;;;;;;5017377;28;20384;-65
2022/05/28 09:28:10;;;;;;;;;;;20.00;57.30;;;;;;5021527;28;19917;-65
2022/05/28 09:30:35;;;;;;;;;;;20.00;57.20;;;;;;5005920;28;19917;-65
2022/05/28 09:33:10;;;;;;;;;;;20.00;57.20;;;;;;5002754;28;19921;-66
2022/05/28 09:35:54;;;;;;;;;;;20.00;57.10;;;;;;5014293;28;19943;-65
2022/05/28 09:38:19;;;;;;;;;;;20.00;57.00;;;;;;5022865;28;19914;-66
2022/05/28 09:40:55;;;;;;;;;;;20.00;57.10;;;;;;5006632;28;19925;-66
2022/05/28 09:43:39;;;;;;;;;;;20.00;57.00;;;;;;5001393;28;19996;-65
2022/05/28 09:46:26;;;;;;;;;;;20.00;56.90;;;;;;5018858;28;19941;-65
2022/05/28 09:48:58;;;;;;;;;;;20.00;56.90;;;;;;5020157;28;20012;-65
2022/05/28 09:51:24;;;;;;;;;;;20.00;56.80;;;;;;5004304;28;20024;-65
2022/05/28 09:56:40;;;;;;;;;;;20.00;56.80;;;;;;4983217;28;20088;-65
2022/05/28 09:59:18;;;;;;;;;;;20.00;56.60;;;;;;4980977;28;20413;-66
2022/05/28 10:01:50;;;;;;;;;;;20.00;56.60;;;;;;5021274;28;19913;-65
2022/05/28 10:04:31;;;;;;;;;;;20.00;56.60;;;;;;5020469;28;20000;-66
2022/05/28 10:06:57;;;;;;;;;;;20.00;56.40;;;;;;4981376;28;19965;-65
2022/05/28 10:09:24;;;;;;;;;;;20.00;56.40;;;;;;4982560;28;20377;-65
2022/05/28 10:11:53;;;;;;;;;;;20.00;56.20;;;;;;5021332;28;19917;-66
2022/05/28 10:14:19;;;;;;;;;;;20.00;56.20;;;;;;5021875;28;20005;-64
2022/05/28 10:16:47;;;;;;;;;;;20.00;56.40;;;;;;5003505;28;20004;-66
2022/05/28 10:19:16;;;;;;;;;;;20.00;56.30;;;;;;5000658;28;19926;-66
2022/05/28 10:21:42;;;;;;;;;;;20.00;56.20;;;;;;5017493;28;19925;-65
2022/05/28 10:24:13;;;;;;;;;;;20.00;55.90;;;;;;5020795;28;19924;-66
2022/05/28 10:26:40;;;;;;;;;;;20.00;55.70;;;;;;4997971;28;19918;-65
2022/05/28 10:29:23;;;;;;;;;;;20.00;55.80;;;;;;4996471;28;19972;-67
2022/05/28 10:31:49;;;;;;;;;;;20.00;55.80;;;;;;5008154;28;19918;-64
2022/05/28 10:34:31;;;;;;;;;;;20.00;55.90;;;;;;5005859;28;19917;-65
2022/05/28 10:37:06;;;;;;;;;;;20.00;56.00;;;;;;5005595;22;19933;-54
2022/05/28 10:39:32;;;;;;;;;;;20.00;56.00;;;;;;4984126;28;21375;-57
2022/05/28 10:41:57;;;;;;;;;;;20.00;56.00;;;;;;5003481;28;19918;-57
2022/05/28 10:44:23;;;;;;;;;;;20.00;56.10;;;;;;5004723;28;19924;-58
2022/05/28 10:47:07;;;;;;;;;;;20.00;56.10;;;;;;4990660;28;20586;-58
2022/05/28 10:49:32;;;;;;;;;;;20.00;56.00;;;;;;4986393;28;19928;-58
2022/05/28 10:52:10;;;;;;;;;;;20.00;55.90;;;;;;5002193;28;20404;-58
2022/05/28 10:54:54;;;;;;;;;;;20.00;56.00;;;;;;4994404;28;19913;-57
2022/05/28 10:57:38;;;;;;;;;;;20.00;56.00;;;;;;5002825;28;19957;-56
2022/05/28 11:00:07;;;;;;;;;;;20.00;56.00;;;;;;4983087;28;19977;-59
2022/05/28 11:02:35;;;;;;;;;;;20.00;55.80;;;;;;5003244;28;19988;-59
2022/05/28 11:05:19;;;;;;;;;;;20.00;55.80;;;;;;5005485;28;19925;-59
2022/05/28 11:07:54;;;;;;;;;;;20.00;55.80;;;;;;4984651;28;19922;-58
2022/05/28 11:10:38;;;;;;;;;;;20.00;55.90;;;;;;4984409;28;20226;-58
2022/05/28 11:13:07;;;;;;;;;;;20.00;55.90;;;;;;4966615;28;20013;-57
2022/05/28 11:15:35;;;;;;;;;;;20.00;56.10;;;;;;4966524;28;19924;-57
2022/05/28 11:18:00;;;;;;;;;;;20.00;56.60;;;;;;4967569;28;20085;-59
2022/05/28 11:20:29;;;;;;;;;;;20.00;56.00;;;;;;4965827;28;20123;-58
2022/05/28 11:22:54;;;;;;;;;;;20.00;55.80;;;;;;4965098;28;19918;-58
2022/05/28 11:25:22;;;;;;;;;;;20.00;55.80;;;;;;4965264;28;20431;-58
2022/05/28 11:27:51;;;;;;;;;;;20.00;55.80;;;;;;4997398;28;20326;-58
2022/05/28 11:30:17;;;;;;;;;;;20.00;55.60;;;;;;5003036;28;19917;-57
2022/05/28 11:32:48;;;;;;;;;;;20.00;55.70;;;;;;4985211;28;20350;-57
2022/05/28 11:35:16;;;;;;;;;;;20.00;55.70;;;;;;4982195;28;19914;-57
2022/05/28 11:37:48;;;;;;;;;;;20.00;55.60;;;;;;4995733;28;19921;-57
2022/05/28 11:40:17;;;;;;;;;;;20.00;55.60;;;;;;5001743;28;19913;-57
2022/05/28 11:42:52;;;;;;;;;;;20.00;55.70;;;;;;5002535;28;19914;-56
2022/05/28 11:45:22;;;;;;;;;;;20.00;55.70;;;;;;4983141;28;20276;-58
2022/05/28 11:48:04;;;;;;;;;;;20.00;55.60;;;;;;5014161;28;20034;-57
2022/05/28 11:53:30;;;;;;;;;;;20.00;55.50;;;;;;5000541;28;19925;-57
2022/05/28 11:55:56;;;;;;;;;;;20.00;55.50;;;;;;4986241;28;19918;-57
2022/05/28 11:58:26;;;;;;;;;;;20.00;55.50;;;;;;5003303;28;20052;-58
2022/05/28 12:00:54;;;;;;;;;;;20.10;55.60;;;;;;5005884;28;20354;-57
2022/05/28 12:03:26;;;;;;;;;;;20.00;56.30;;;;;;5005110;28;19918;-55
2022/05/28 12:05:54;;;;;;;;;;;20.10;55.80;;;;;;5002395;28;19987;-58
2022/05/28 12:08:24;;;;;;;;;;;20.10;55.90;;;;;;5002246;28;19929;-57
2022/05/28 12:10:51;;;;;;;;;;;20.10;56.20;;;;;;5005082;28;19918;-57
2022/05/28 12:13:35;;;;;;;;;;;20.00;56.60;;;;;;5008701;28;20666;-57
2022/05/28 12:16:04;;;;;;;;;;;20.00;56.80;;;;;;4989553;28;26126;-58
2022/05/28 12:18:29;;;;;;;;;;;20.10;57.20;;;;;;5002914;28;20025;-58
2022/05/28 12:20:58;;;;;;;;;;;20.00;57.20;;;;;;5008304;28;19975;-57
2022/05/28 12:23:39;;;;;;;;;;;20.10;56.90;;;;;;5022194;28;19914;-59
2022/05/28 12:26:14;;;;;;;;;;;20.00;56.80;;;;;;5006775;28;20341;-57
2022/05/28 12:28:49;;;;;;;;;;;20.10;56.40;;;;;;4989458;28;19995;-58
2022/05/28 12:31:24;;;;;;;;;;;20.00;56.20;;;;;;4985665;28;19914;-58
2022/05/28 12:33:51;;;;;;;;;;;20.00;56.00;;;;;;4985509;28;19918;-58
2022/05/28 12:36:16;;;;;;;;;;;20.00;55.80;;;;;;5000308;28;19953;-57
2022/05/28 12:38:50;;;;;;;;;;;20.00;55.60;;;;;;4985802;28;19941;-58
2022/05/28 12:41:21;;;;;;;;;;;20.00;55.60;;;;;;4984268;28;19945;-57
2022/05/28 12:43:54;;;;;;;;;;;20.00;55.10;;;;;;4985921;28;19918;-57
2022/05/28 12:46:36;;;;;;;;;;;20.00;55.30;;;;;;4986807;28;19918;-57
2022/05/28 12:49:09;;;;;;;;;;;20.00;55.30;;;;;;4987953;28;20424;-58
2022/05/28 12:51:45;;;;;;;;;;;20.00;55.10;;;;;;5002384;28;20451;-58
2022/05/28 12:54:10;;;;;;;;;;;20.00;55.20;;;;;;4992950;28;20701;-58
2022/05/28 12:56:39;;;;;;;;;;;20.00;55.20;;;;;;5022585;28;19925;-57
2022/05/28 12:59:13;;;;;;;;;;;20.00;55.20;;;;;;4990397;28;19917;-55
2022/05/28 13:01:40;;;;;;;;;;;20.00;55.10;;;;;;4987071;28;19945;-57
2022/05/28 13:04:14;;;;;;;;;;;20.00;55.00;;;;;;5000336;28;19917;-58
2022/05/28 13:06:46;;;;;;;;;;;20.00;55.30;;;;;;5022028;28;19920;-57
2022/05/28 13:09:11;;;;;;;;;;;20.00;54.90;;;;;;5003457;28;19917;-62
2022/05/28 13:11:42;;;;;;;;;;;20.00;54.70;;;;;;5021137;28;19925;-56
2022/05/28 13:14:27;;;;;;;;;;;20.00;55.10;;;;;;4993700;28;20268;-56
2022/05/28 13:17:01;;;;;;;;;;;20.00;54.50;;;;;;5002607;28;19944;-58
2022/05/28 13:19:26;;;;;;;;;;;20.00;54.30;;;;;;4994934;28;19918;-55
2022/05/28 13:22:10;;;;;;;;;;;20.00;54.40;;;;;;5019412;28;20338;-58
2022/05/28 13:24:39;;;;;;;;;;;20.00;54.50;;;;;;4987877;28;19917;-56
2022/05/28 13:27:13;;;;;;;;;;;20.00;54.70;;;;;;4985254;28;19917;-56
2022/05/28 13:29:39;;;;;;;;;;;20.00;54.60;;;;;;4999658;28;19944;-56
2022/05/28 13:32:06;;;;;;;;;;;20.00;54.70;;;;;;5005481;28;19917;-55
2022/05/28 13:34:32;;;;;;;;;;;20.00;54.90;;;;;;5005573;28;20493;-55
2022/05/28 13:36:58;;;;;;;;;;;19.90;55.00;;;;;;4984731;28;19926;-54
2022/05/28 13:39:24;;;;;;;;;;;19.90;55.00;;;;;;4994828;28;20402;-57
2022/05/28 13:41:49;;;;;;;;;;;19.90;55.10;;;;;;5019847;28;19918;-57
2022/05/28 13:44:18;;;;;;;;;;;19.90;55.20;;;;;;4994334;28;19920;-58
2022/05/28 13:46:45;;;;;;;;;;;19.90;55.30;;;;;;4999795;28;20722;-56
2022/05/28 13:49:11;;;;;;;;;;;19.90;55.30;;;;;;4992313;28;19914;-56
2022/05/28 13:51:36;;;;;;;;;;;19.90;55.40;;;;;;5016373;28;19922;-58
2022/05/28 13:54:04;;;;;;;;;;;19.90;55.50;;;;;;4993194;28;20422;-55
2022/05/28 13:56:32;;;;;;;;;;;19.90;55.40;;;;;;4982921;28;19921;-56
2022/05/28 13:58:58;;;;;;;;;;;19.90;55.60;;;;;;4988367;28;19913;-57
2022/05/28 14:01:24;;;;;;;;;;;19.90;55.50;;;;;;5019267;28;20000;-56
2022/05/28 14:03:50;;;;;;;;;;;19.90;55.50;;;;;;4990036;28;20004;-57
2022/05/28 14:06:16;;;;;;;;;;;19.90;55.60;;;;;;4983467;28;19920;-58
2022/05/28 14:08:42;;;;;;;;;;;19.90;55.60;;;;;;4999858;28;19922;-57
2022/05/28 14:11:07;;;;;;;;;;;20.00;55.90;;;;;;5004124;28;19921;-59
2022/05/28 14:13:33;;;;;;;;;;;19.90;56.00;;;;;;5003775;28;19914;-57
2022/05/28 14:15:58;;;;;;;;;;;19.90;56.00;;;;;;4983963;28;20383;-58
2022/05/28 14:18:26;;;;;;;;;;;19.90;55.90;;;;;;4982800;28;20435;-57
2022/05/28 14:20:53;;;;;;;;;;;19.90;55.80;;;;;;5016770;28;19919;-57
2022/05/28 14:23:25;;;;;;;;;;;19.90;55.90;;;;;;5004445;28;19964;-57
2022/05/28 14:25:52;;;;;;;;;;;19.90;56.00;;;;;;4986026;28;19918;-58
2022/05/28 14:28:17;;;;;;;;;;;19.90;56.20;;;;;;4979910;28;19961;-57